sensor_id;sensor_type;location;lat;lon;timestamp;pressure;altitude;pressure_sealevel;temperature;humidity
6028;BME280;3042;43.194;27.646;2023-06-26T00:01:08;100985.09;;;27.34;100.00
6028;BME280;3042;43.194;27.646;2023-06-26T00:03:35;100879.38;;;26.72;100.00
6028;BME280;3042;43.194;27.646;2023-06-26T00:06:02;100983.06;;;27.47;100.00
6028;BME280;3042;43.194;27.646;2023-06-26T00:08:29;100982.22;;;27.45;100.00
6028;BME280;3042;43.194;27.646;2023-06-26T00:10:56;100982.13;;;27.48;100.00
6028;BME280;3042;43.194;27.646;2023-06-26T00:13:24;100858.03;;;26.79;100.00
6028;BME280;3042;43.194;27.646;2023-06-26T00:15:51;100978.63;;;27.46;100.00
6028;BME280;3042;43.194;27.646;2023-06-26T00:18:18;100974.06;;;27.53;100.00
6028;BME280;3042;43.194;27.646;2023-06-26T00:20:45;100922.28;;;27.35;100.00
6028;BME280;3042;43.194;27.646;2023-06-26T00:23:13;100975.75;;;27.57;100.00
6028;BME280;3042;43.194;27.646;2023-06-26T00:25:43;100974.97;;;27.53;100.00
6028;BME280;3042;43.194;27.646;2023-06-26T00:28:10;100974.72;;;27.64;100.00
6028;BME280;3042;43.194;27.646;2023-06-26T00:30:38;100966.75;;;27.64;100.00
6028;BME280;3042;43.194;27.646;2023-06-26T00:33:05;100958.97;;;27.56;100.00
6028;BME280;3042;43.194;27.646;2023-06-26T00:35:32;100905.63;;;27.28;100.00
6028;BME280;3042;43.194;27.646;2023-06-26T00:38:00;100971.16;;;27.65;100.00
6028;BME280;3042;43.194;27.646;2023-06-26T00:40:28;100969.22;;;27.72;100.00
6028;BME280;3042;43.194;27.646;2023-06-26T00:42:55;100969.50;;;27.60;100.00
6028;BME280;3042;43.194;27.646;2023-06-26T00:45:22;100905.44;;;27.36;100.00
6028;BME280;3042;43.194;27.646;2023-06-26T00:47:51;100957.41;;;27.87;100.00
6028;BME280;3042;43.194;27.646;2023-06-26T00:50:18;100967.34;;;27.77;100.00
6028;BME280;3042;43.194;27.646;2023-06-26T00:52:47;100968.44;;;27.67;100.00
6028;BME280;3042;43.194;27.646;2023-06-26T00:55:14;100964.72;;;27.75;100.00
6028;BME280;3042;43.194;27.646;2023-06-26T00:57:42;100974.97;;;27.53;100.00
6028;BME280;3042;43.194;27.646;2023-06-26T01:00:12;100905.56;;;26.88;100.00
6028;BME280;3042;43.194;27.646;2023-06-26T01:02:39;100965.69;;;27.32;100.00
6028;BME280;3042;43.194;27.646;2023-06-26T01:05:08;100962.59;;;27.52;100.00
6028;BME280;3042;43.194;27.646;2023-06-26T01:07:38;100969.03;;;27.41;100.00
6028;BME280;3042;43.194;27.646;2023-06-26T01:10:07;100968.50;;;27.25;100.00
6028;BME280;3042;43.194;27.646;2023-06-26T01:12:34;100967.72;;;27.20;100.00
6028;BME280;3042;43.194;27.646;2023-06-26T01:15:02;100963.59;;;27.47;100.00
6028;BME280;3042;43.194;27.646;2023-06-26T01:17:31;100968.38;;;27.31;100.00
6028;BME280;3042;43.194;27.646;2023-06-26T01:19:59;100965.25;;;27.51;100.00
6028;BME280;3042;43.194;27.646;2023-06-26T01:22:34;100966.25;;;27.47;100.00
6028;BME280;3042;43.194;27.646;2023-06-26T01:25:15;100943.16;;;27.50;100.00
6028;BME280;3042;43.194;27.646;2023-06-26T01:27:48;100856.47;;;26.68;100.00
6028;BME280;3042;43.194;27.646;2023-06-26T01:30:16;100957.34;;;27.49;100.00
6028;BME280;3042;43.194;27.646;2023-06-26T01:32:44;100957.00;;;27.65;100.00
6028;BME280;3042;43.194;27.646;2023-06-26T01:35:12;100953.28;;;27.72;100.00
6028;BME280;3042;43.194;27.646;2023-06-26T01:37:40;100953.50;;;27.24;100.00
6028;BME280;3042;43.194;27.646;2023-06-26T01:40:08;100837.50;;;26.88;100.00
6028;BME280;3042;43.194;27.646;2023-06-26T01:42:35;100947.38;;;27.61;100.00
6028;BME280;3042;43.194;27.646;2023-06-26T01:45:07;100958.47;;;27.78;100.00
6028;BME280;3042;43.194;27.646;2023-06-26T01:47:37;100958.13;;;27.54;100.00
6028;BME280;3042;43.194;27.646;2023-06-26T01:50:11;100961.31;;;27.70;100.00
6028;BME280;3042;43.194;27.646;2023-06-26T01:52:42;100898.44;;;27.32;100.00
6028;BME280;3042;43.194;27.646;2023-06-26T01:55:15;100950.72;;;27.67;100.00
6028;BME280;3042;43.194;27.646;2023-06-26T01:57:45;100944.34;;;27.76;100.00
6028;BME280;3042;43.194;27.646;2023-06-26T02:00:16;100938.75;;;27.88;100.00
6028;BME280;3042;43.194;27.646;2023-06-26T02:02:44;100941.59;;;27.79;100.00
6028;BME280;3042;43.194;27.646;2023-06-26T02:05:12;100866.59;;;27.32;100.00
6028;BME280;3042;43.194;27.646;2023-06-26T02:07:39;100931.56;;;27.54;100.00
6028;BME280;3042;43.194;27.646;2023-06-26T02:10:07;100931.81;;;27.84;100.00
6028;BME280;3042;43.194;27.646;2023-06-26T02:12:34;100934.28;;;27.90;100.00
6028;BME280;3042;43.194;27.646;2023-06-26T02:15:02;100929.16;;;27.81;100.00
6028;BME280;3042;43.194;27.646;2023-06-26T02:17:31;100931.81;;;27.84;100.00
6028;BME280;3042;43.194;27.646;2023-06-26T02:19:58;100938.75;;;27.88;100.00
6028;BME280;3042;43.194;27.646;2023-06-26T02:22:25;100788.94;;;26.85;100.00
6028;BME280;3042;43.194;27.646;2023-06-26T02:24:54;100935.28;;;27.86;100.00
6028;BME280;3042;43.194;27.646;2023-06-26T02:27:21;100898.75;;;27.58;100.00
6028;BME280;3042;43.194;27.646;2023-06-26T02:29:48;100940.84;;;27.74;100.00
6028;BME280;3042;43.194;27.646;2023-06-26T02:32:15;100831.44;;;27.24;100.00
6028;BME280;3042;43.194;27.646;2023-06-26T02:34:43;100929.91;;;27.88;100.00
6028;BME280;3042;43.194;27.646;2023-06-26T02:37:10;100799.06;;;27.06;100.00
6028;BME280;3042;43.194;27.646;2023-06-26T02:39:37;100938.41;;;28.04;100.00
6028;BME280;3042;43.194;27.646;2023-06-26T02:42:05;100937.59;;;28.00;100.00
6028;BME280;3042;43.194;27.646;2023-06-26T02:44:32;100929.25;;;28.14;100.00
6028;BME280;3042;43.194;27.646;2023-06-26T02:46:59;100934.66;;;28.11;100.00
6028;BME280;3042;43.194;27.646;2023-06-26T02:49:26;100929.09;;;28.22;100.00
6028;BME280;3042;43.194;27.646;2023-06-26T02:51:54;100932.03;;;28.44;100.00
6028;BME280;3042;43.194;27.646;2023-06-26T02:54:21;100727.63;;;27.36;100.00
6028;BME280;3042;43.194;27.646;2023-06-26T02:56:48;100830.53;;;27.96;100.00
6028;BME280;3042;43.194;27.646;2023-06-26T02:59:15;100932.91;;;28.44;100.00
6028;BME280;3042;43.194;27.646;2023-06-26T03:01:43;100924.78;;;28.52;100.00
6028;BME280;3042;43.194;27.646;2023-06-26T03:04:10;100886.34;;;28.29;100.00
6028;BME280;3042;43.194;27.646;2023-06-26T03:06:37;100942.63;;;28.47;100.00
6028;BME280;3042;43.194;27.646;2023-06-26T03:09:05;100941.47;;;28.57;100.00
6028;BME280;3042;43.194;27.646;2023-06-26T03:11:32;100890.69;;;28.33;100.00
6028;BME280;3042;43.194;27.646;2023-06-26T03:13:59;100936.69;;;28.70;100.00
6028;BME280;3042;43.194;27.646;2023-06-26T03:16:26;100935.94;;;28.65;100.00
6028;BME280;3042;43.194;27.646;2023-06-26T03:18:53;100929.41;;;28.76;100.00
6028;BME280;3042;43.194;27.646;2023-06-26T03:21:20;100933.53;;;28.87;100.00
6028;BME280;3042;43.194;27.646;2023-06-26T03:23:47;100936.44;;;28.77;100.00
6028;BME280;3042;43.194;27.646;2023-06-26T03:26:16;100931.69;;;28.90;100.00
6028;BME280;3042;43.194;27.646;2023-06-26T03:28:43;100934.50;;;28.84;100.00
6028;BME280;3042;43.194;27.646;2023-06-26T03:31:10;100937.84;;;28.91;100.00
6028;BME280;3042;43.194;27.646;2023-06-26T03:33:37;100888.41;;;28.83;100.00
6028;BME280;3042;43.194;27.646;2023-06-26T03:36:05;100926.63;;;29.12;100.00
6028;BME280;3042;43.194;27.646;2023-06-26T03:38:32;100932.97;;;29.07;100.00
6028;BME280;3042;43.194;27.646;2023-06-26T03:40:59;100929.13;;;29.17;100.00
6028;BME280;3042;43.194;27.646;2023-06-26T03:43:28;100926.34;;;29.21;100.00
6028;BME280;3042;43.194;27.646;2023-06-26T03:45:55;100924.22;;;29.33;100.00
6028;BME280;3042;43.194;27.646;2023-06-26T03:48:22;100924.94;;;29.38;100.00
6028;BME280;3042;43.194;27.646;2023-06-26T03:50:49;100860.56;;;28.95;100.00
6028;BME280;3042;43.194;27.646;2023-06-26T03:53:16;100863.47;;;28.88;100.00
6028;BME280;3042;43.194;27.646;2023-06-26T03:55:43;100905.91;;;29.22;100.00
6028;BME280;3042;43.194;27.646;2023-06-26T03:58:10;100918.63;;;29.42;100.00
6028;BME280;3042;43.194;27.646;2023-06-26T04:00:38;100923.66;;;29.23;100.00
6028;BME280;3042;43.194;27.646;2023-06-26T04:03:05;100922.69;;;29.25;100.00
6028;BME280;3042;43.194;27.646;2023-06-26T04:05:32;100876.00;;;29.14;100.00
6028;BME280;3042;43.194;27.646;2023-06-26T04:07:59;100921.25;;;29.43;100.00
6028;BME280;3042;43.194;27.646;2023-06-26T04:10:26;100916.22;;;29.62;100.00
6028;BME280;3042;43.194;27.646;2023-06-26T04:12:53;100916.22;;;29.62;100.00
6028;BME280;3042;43.194;27.646;2023-06-26T04:15:20;100919.22;;;29.80;100.00
6028;BME280;3042;43.194;27.646;2023-06-26T04:17:49;100914.09;;;30.00;100.00
6028;BME280;3042;43.194;27.646;2023-06-26T04:20:16;100913.25;;;30.25;100.00
6028;BME280;3042;43.194;27.646;2023-06-26T04:22:43;100898.28;;;30.71;100.00
6028;BME280;3042;43.194;27.646;2023-06-26T04:25:10;100906.91;;;31.26;100.00
6028;BME280;3042;43.194;27.646;2023-06-26T04:27:38;100804.84;;;30.73;100.00
6028;BME280;3042;43.194;27.646;2023-06-26T04:30:06;100905.34;;;31.66;100.00
6028;BME280;3042;43.194;27.646;2023-06-26T04:32:34;100901.53;;;31.94;100.00
6028;BME280;3042;43.194;27.646;2023-06-26T04:35:02;100900.91;;;32.30;100.00
6028;BME280;3042;43.194;27.646;2023-06-26T04:37:29;100902.28;;;32.18;100.00
6028;BME280;3042;43.194;27.646;2023-06-26T04:39:56;100883.91;;;32.10;100.00
6028;BME280;3042;43.194;27.646;2023-06-26T04:42:23;100898.63;;;32.41;100.00
6028;BME280;3042;43.194;27.646;2023-06-26T04:44:50;100906.38;;;32.87;100.00
6028;BME280;3042;43.194;27.646;2023-06-26T04:47:17;100905.69;;;33.02;100.00
6028;BME280;3042;43.194;27.646;2023-06-26T04:49:44;100918.25;;;32.81;100.00
6028;BME280;3042;43.194;27.646;2023-06-26T04:52:13;100897.47;;;33.07;100.00
6028;BME280;3042;43.194;27.646;2023-06-26T04:54:40;100901.16;;;32.65;100.00
6028;BME280;3042;43.194;27.646;2023-06-26T04:57:07;100885.31;;;32.19;100.00
6028;BME280;3042;43.194;27.646;2023-06-26T04:59:37;100926.72;;;32.10;100.00
6028;BME280;3042;43.194;27.646;2023-06-26T05:02:04;100894.28;;;31.75;100.00
6028;BME280;3042;43.194;27.646;2023-06-26T05:04:31;100952.69;;;31.85;100.00
6028;BME280;3042;43.194;27.646;2023-06-26T05:06:58;100953.16;;;31.72;100.00
6028;BME280;3042;43.194;27.646;2023-06-26T05:09:27;100954.13;;;31.71;100.00
6028;BME280;3042;43.194;27.646;2023-06-26T05:11:54;100956.84;;;31.24;100.00
6028;BME280;3042;43.194;27.646;2023-06-26T05:14:21;100964.25;;;31.16;100.00
6028;BME280;3042;43.194;27.646;2023-06-26T05:16:48;100969.25;;;31.02;100.00
6028;BME280;3042;43.194;27.646;2023-06-26T05:19:15;100964.38;;;31.13;100.00
6028;BME280;3042;43.194;27.646;2023-06-26T05:21:42;100877.88;;;30.46;100.00
6028;BME280;3042;43.194;27.646;2023-06-26T05:24:13;100970.72;;;30.85;100.00
6028;BME280;3042;43.194;27.646;2023-06-26T05:26:44;100979.59;;;30.86;100.00
6028;BME280;3042;43.194;27.646;2023-06-26T05:29:12;100983.56;;;30.74;100.00
6028;BME280;3042;43.194;27.646;2023-06-26T05:31:41;100972.97;;;30.98;100.00
6028;BME280;3042;43.194;27.646;2023-06-26T05:34:10;100977.25;;;31.02;100.00
6028;BME280;3042;43.194;27.646;2023-06-26T05:36:38;100926.50;;;30.78;100.00
6028;BME280;3042;43.194;27.646;2023-06-26T05:39:07;100967.22;;;30.83;100.00
6028;BME280;3042;43.194;27.646;2023-06-26T05:41:35;100938.66;;;31.10;100.00
6028;BME280;3042;43.194;27.646;2023-06-26T05:44:04;100957.28;;;31.59;100.00
6028;BME280;3042;43.194;27.646;2023-06-26T05:46:31;100984.88;;;31.60;100.00
6028;BME280;3042;43.194;27.646;2023-06-26T05:48:58;100988.06;;;31.22;100.00
6028;BME280;3042;43.194;27.646;2023-06-26T05:51:27;100998.69;;;31.24;100.00
6028;BME280;3042;43.194;27.646;2023-06-26T05:53:54;101001.63;;;31.16;100.00
6028;BME280;3042;43.194;27.646;2023-06-26T05:56:22;100997.94;;;31.20;100.00
6028;BME280;3042;43.194;27.646;2023-06-26T05:58:49;101009.28;;;31.02;100.00
6028;BME280;3042;43.194;27.646;2023-06-26T06:01:18;101004.59;;;31.08;100.00
6028;BME280;3042;43.194;27.646;2023-06-26T06:03:46;100982.50;;;31.05;100.00
6028;BME280;3042;43.194;27.646;2023-06-26T06:06:13;101023.25;;;31.10;100.00
6028;BME280;3042;43.194;27.646;2023-06-26T06:08:41;101012.09;;;31.47;100.00
6028;BME280;3042;43.194;27.646;2023-06-26T06:11:08;101007.91;;;31.39;100.00
6028;BME280;3042;43.194;27.646;2023-06-26T06:13:35;100988.34;;;31.62;100.00
6028;BME280;3042;43.194;27.646;2023-06-26T06:16:03;101004.91;;;31.71;100.00
6028;BME280;3042;43.194;27.646;2023-06-26T06:18:31;101002.00;;;31.78;100.00
6028;BME280;3042;43.194;27.646;2023-06-26T06:20:58;100999.88;;;31.86;100.00
6028;BME280;3042;43.194;27.646;2023-06-26T06:23:25;100999.88;;;31.86;100.00
6028;BME280;3042;43.194;27.646;2023-06-26T06:25:52;101011.88;;;31.75;100.00
6028;BME280;3042;43.194;27.646;2023-06-26T06:28:19;101004.75;;;31.74;100.00
6028;BME280;3042;43.194;27.646;2023-06-26T06:30:46;101007.75;;;31.89;100.00
6028;BME280;3042;43.194;27.646;2023-06-26T06:33:14;101015.94;;;31.62;100.00
6028;BME280;3042;43.194;27.646;2023-06-26T06:35:42;100977.44;;;31.21;100.00
6028;BME280;3042;43.194;27.646;2023-06-26T06:38:10;100884.22;;;30.42;100.00
6028;BME280;3042;43.194;27.646;2023-06-26T06:40:37;101012.72;;;31.54;100.00
6028;BME280;3042;43.194;27.646;2023-06-26T06:43:04;101001.22;;;31.74;100.00
6028;BME280;3042;43.194;27.646;2023-06-26T06:45:30;100997.94;;;31.89;100.00
6028;BME280;3042;43.194;27.646;2023-06-26T06:47:57;100984.94;;;32.45;100.00
6028;BME280;3042;43.194;27.646;2023-06-26T06:50:24;100972.19;;;32.92;100.00
6028;BME280;3042;43.194;27.646;2023-06-26T06:52:53;100982.97;;;33.30;100.00
6028;BME280;3042;43.194;27.646;2023-06-26T06:55:20;100983.88;;;33.10;100.00
6028;BME280;3042;43.194;27.646;2023-06-26T06:57:47;100922.72;;;32.62;100.00
6028;BME280;3042;43.194;27.646;2023-06-26T07:00:14;100998.56;;;32.81;100.00
6028;BME280;3042;43.194;27.646;2023-06-26T07:02:43;100978.41;;;32.31;100.00
6028;BME280;3042;43.194;27.646;2023-06-26T07:05:28;100997.44;;;32.24;100.00
6028;BME280;3042;43.194;27.646;2023-06-26T07:07:56;101005.28;;;32.50;100.00
6028;BME280;3042;43.194;27.646;2023-06-26T07:10:23;100984.47;;;32.57;100.00
6028;BME280;3042;43.194;27.646;2023-06-26T07:12:50;101013.75;;;32.17;100.00
6028;BME280;3042;43.194;27.646;2023-06-26T07:15:17;101006.16;;;32.29;100.00
6028;BME280;3042;43.194;27.646;2023-06-26T07:17:44;101008.66;;;32.11;100.00
6028;BME280;3042;43.194;27.646;2023-06-26T07:20:11;101003.53;;;32.27;100.00
6028;BME280;3042;43.194;27.646;2023-06-26T07:22:41;100999.34;;;32.42;100.00
6028;BME280;3042;43.194;27.646;2023-06-26T07:25:11;101017.00;;;32.04;100.00
6028;BME280;3042;43.194;27.646;2023-06-26T07:27:39;100989.63;;;32.62;100.00
6028;BME280;3042;43.194;27.646;2023-06-26T07:30:07;100983.81;;;32.91;100.00
6028;BME280;3042;43.194;27.646;2023-06-26T07:32:34;100961.50;;;32.51;100.00
6028;BME280;3042;43.194;27.646;2023-06-26T07:35:01;100966.97;;;33.10;100.00
6028;BME280;3042;43.194;27.646;2023-06-26T07:37:29;100939.31;;;33.28;100.00
6028;BME280;3042;43.194;27.646;2023-06-26T07:39:56;100991.00;;;33.30;100.00
6028;BME280;3042;43.194;27.646;2023-06-26T07:42:24;100985.22;;;33.39;100.00
6028;BME280;3042;43.194;27.646;2023-06-26T07:44:51;100986.81;;;33.43;100.00
6028;BME280;3042;43.194;27.646;2023-06-26T07:47:18;100961.75;;;33.07;100.00
6028;BME280;3042;43.194;27.646;2023-06-26T07:49:45;100907.72;;;32.78;100.00
6028;BME280;3042;43.194;27.646;2023-06-26T07:52:12;100991.88;;;33.12;100.00
6028;BME280;3042;43.194;27.646;2023-06-26T07:54:40;100987.72;;;32.84;100.00
6028;BME280;3042;43.194;27.646;2023-06-26T07:57:07;101011.72;;;32.67;100.00
6028;BME280;3042;43.194;27.646;2023-06-26T07:59:38;100906.91;;;32.35;100.00
6028;BME280;3042;43.194;27.646;2023-06-26T08:02:05;100995.97;;;32.79;100.00
6028;BME280;3042;43.194;27.646;2023-06-26T08:04:33;100948.84;;;33.15;100.00
6028;BME280;3042;43.194;27.646;2023-06-26T08:07:01;100969.28;;;33.74;100.00
6028;BME280;3042;43.194;27.646;2023-06-26T08:09:29;100989.56;;;33.42;100.00
6028;BME280;3042;43.194;27.646;2023-06-26T08:11:57;101018.13;;;32.83;100.00
6028;BME280;3042;43.194;27.646;2023-06-26T08:14:24;101025.56;;;32.34;100.00
6028;BME280;3042;43.194;27.646;2023-06-26T08:16:53;101033.41;;;32.16;100.00
6028;BME280;3042;43.194;27.646;2023-06-26T08:19:20;101021.50;;;32.03;100.00
6028;BME280;3042;43.194;27.646;2023-06-26T08:21:47;101016.44;;;32.38;100.00
6028;BME280;3042;43.194;27.646;2023-06-26T08:24:15;101007.34;;;32.64;100.00
6028;BME280;3042;43.194;27.646;2023-06-26T08:26:45;100897.41;;;32.28;100.00
6028;BME280;3042;43.194;27.646;2023-06-26T08:29:12;100990.63;;;32.98;100.00
6028;BME280;3042;43.194;27.646;2023-06-26T08:31:39;100950.59;;;32.56;100.00
6028;BME280;3042;43.194;27.646;2023-06-26T08:34:08;100992.38;;;33.20;100.00
6028;BME280;3042;43.194;27.646;2023-06-26T08:36:35;100994.69;;;33.09;100.00
6028;BME280;3042;43.194;27.646;2023-06-26T08:39:02;100990.59;;;33.20;100.00
6028;BME280;3042;43.194;27.646;2023-06-26T08:41:30;100990.38;;;33.25;100.00
6028;BME280;3042;43.194;27.646;2023-06-26T08:43:57;100946.97;;;33.17;100.00
6028;BME280;3042;43.194;27.646;2023-06-26T08:46:25;100992.19;;;33.43;100.00
6028;BME280;3042;43.194;27.646;2023-06-26T08:48:55;100999.00;;;33.51;100.00
6028;BME280;3042;43.194;27.646;2023-06-26T08:51:25;100945.97;;;32.99;100.00
6028;BME280;3042;43.194;27.646;2023-06-26T08:53:57;101003.03;;;33.21;100.00
6028;BME280;3042;43.194;27.646;2023-06-26T08:56:25;100946.78;;;33.01;100.00
6028;BME280;3042;43.194;27.646;2023-06-26T08:58:54;101004.31;;;33.32;100.00
6028;BME280;3042;43.194;27.646;2023-06-26T09:01:22;100999.53;;;33.38;100.00
6028;BME280;3042;43.194;27.646;2023-06-26T09:03:50;100999.69;;;33.35;100.00
6028;BME280;3042;43.194;27.646;2023-06-26T09:06:18;101011.00;;;33.23;100.00
6028;BME280;3042;43.194;27.646;2023-06-26T09:08:46;101004.94;;;32.78;100.00
6028;BME280;3042;43.194;27.646;2023-06-26T09:11:13;100984.94;;;32.67;100.00
6028;BME280;3042;43.194;27.646;2023-06-26T09:13:40;101014.84;;;32.97;100.00
6028;BME280;3042;43.194;27.646;2023-06-26T09:16:09;100950.09;;;33.08;100.00
6028;BME280;3042;43.194;27.646;2023-06-26T09:18:36;100997.81;;;33.37;100.00
6028;BME280;3042;43.194;27.646;2023-06-26T09:21:07;100996.66;;;33.62;100.00
6028;BME280;3042;43.194;27.646;2023-06-26T09:23:34;100991.88;;;33.69;100.00
6028;BME280;3042;43.194;27.646;2023-06-26T09:26:04;100991.97;;;34.03;100.00
6028;BME280;3042;43.194;27.646;2023-06-26T09:28:32;100984.94;;;34.01;100.00
6028;BME280;3042;43.194;27.646;2023-06-26T09:31:02;100921.16;;;33.71;100.00
6028;BME280;3042;43.194;27.646;2023-06-26T09:33:33;100941.56;;;33.93;100.00
6028;BME280;3042;43.194;27.646;2023-06-26T09:36:04;100932.41;;;33.97;100.00
6028;BME280;3042;43.194;27.646;2023-06-26T09:38:32;100969.22;;;34.64;100.00
6028;BME280;3042;43.194;27.646;2023-06-26T09:41:00;100948.72;;;34.63;100.00
6028;BME280;3042;43.194;27.646;2023-06-26T09:43:28;100951.84;;;34.72;100.00
6028;BME280;3042;43.194;27.646;2023-06-26T09:45:56;100929.91;;;34.46;100.00
6028;BME280;3042;43.194;27.646;2023-06-26T09:48:24;100994.41;;;34.27;100.00
6028;BME280;3042;43.194;27.646;2023-06-26T09:50:51;100989.69;;;33.96;100.00
6028;BME280;3042;43.194;27.646;2023-06-26T09:53:20;100953.59;;;34.38;100.00
6028;BME280;3042;43.194;27.646;2023-06-26T09:55:47;100960.38;;;34.80;100.00
6028;BME280;3042;43.194;27.646;2023-06-26T09:58:15;100943.34;;;34.63;100.00
6028;BME280;3042;43.194;27.646;2023-06-26T10:00:44;100960.75;;;34.89;100.00
6028;BME280;3042;43.194;27.646;2023-06-26T10:03:11;100967.31;;;34.32;100.00
6028;BME280;3042;43.194;27.646;2023-06-26T10:05:40;100971.75;;;34.67;100.00
6028;BME280;3042;43.194;27.646;2023-06-26T10:08:07;100971.25;;;34.77;100.00
6028;BME280;3042;43.194;27.646;2023-06-26T10:10:36;100963.13;;;34.78;100.00
6028;BME280;3042;43.194;27.646;2023-06-26T10:13:07;100967.88;;;34.73;100.00
6028;BME280;3042;43.194;27.646;2023-06-26T10:15:36;100969.03;;;34.85;100.00
6028;BME280;3042;43.194;27.646;2023-06-26T10:18:05;100965.44;;;34.68;100.00
6028;BME280;3042;43.194;27.646;2023-06-26T10:20:33;100986.59;;;34.40;100.00
6028;BME280;3042;43.194;27.646;2023-06-26T10:23:01;100976.66;;;34.42;100.00
6028;BME280;3042;43.194;27.646;2023-06-26T10:25:30;100965.09;;;34.57;100.00
6028;BME280;3042;43.194;27.646;2023-06-26T10:28:00;100980.09;;;34.44;100.00
6028;BME280;3042;43.194;27.646;2023-06-26T10:30:31;100949.94;;;34.74;100.00
6028;BME280;3042;43.194;27.646;2023-06-26T10:33:00;100951.84;;;34.72;100.00
6028;BME280;3042;43.194;27.646;2023-06-26T10:35:30;100934.22;;;34.99;100.00
6028;BME280;3042;43.194;27.646;2023-06-26T10:38:01;100914.88;;;35.26;100.00
6028;BME280;3042;43.194;27.646;2023-06-26T10:40:40;100894.56;;;35.68;100.00
6028;BME280;3042;43.194;27.646;2023-06-26T10:43:08;100911.91;;;35.46;100.00
6028;BME280;3042;43.194;27.646;2023-06-26T10:45:35;100927.69;;;35.53;100.00
6028;BME280;3042;43.194;27.646;2023-06-26T10:48:02;100912.25;;;35.72;100.00
6028;BME280;3042;43.194;27.646;2023-06-26T10:50:32;100924.03;;;35.54;100.00
6028;BME280;3042;43.194;27.646;2023-06-26T10:53:16;100917.81;;;35.37;100.00
6028;BME280;3042;43.194;27.646;2023-06-26T10:55:54;100952.84;;;35.02;100.00
6028;BME280;3042;43.194;27.646;2023-06-26T10:58:33;100868.66;;;34.37;100.00
6028;BME280;3042;43.194;27.646;2023-06-26T11:01:21;100920.47;;;34.21;100.00
6028;BME280;3042;43.194;27.646;2023-06-26T11:04:00;100970.56;;;34.38;100.00
6028;BME280;3042;43.194;27.646;2023-06-26T11:06:30;100967.50;;;34.29;100.00
6028;BME280;3042;43.194;27.646;2023-06-26T11:09:01;100955.00;;;34.45;100.00
6028;BME280;3042;43.194;27.646;2023-06-26T11:11:57;100986.03;;;33.97;100.00
6028;BME280;3042;43.194;27.646;2023-06-26T11:14:41;100981.28;;;33.84;100.00
6028;BME280;3042;43.194;27.646;2023-06-26T11:17:08;100966.00;;;34.04;100.00
6028;BME280;3042;43.194;27.646;2023-06-26T11:19:36;100957.69;;;34.28;100.00
6028;BME280;3042;43.194;27.646;2023-06-26T11:22:05;100961.28;;;34.28;100.00
6028;BME280;3042;43.194;27.646;2023-06-26T11:24:32;100947.91;;;34.44;100.00
6028;BME280;3042;43.194;27.646;2023-06-26T11:27:01;100918.56;;;34.23;100.00
6028;BME280;3042;43.194;27.646;2023-06-26T11:29:30;100914.44;;;34.68;100.00
6028;BME280;3042;43.194;27.646;2023-06-26T11:32:05;100905.47;;;35.01;100.00
6028;BME280;3042;43.194;27.646;2023-06-26T11:34:33;100910.50;;;35.07;100.00
6028;BME280;3042;43.194;27.646;2023-06-26T11:37:00;100904.81;;;35.29;100.00
6028;BME280;3042;43.194;27.646;2023-06-26T11:39:32;100882.28;;;35.64;100.00
6028;BME280;3042;43.194;27.646;2023-06-26T11:41:59;100891.28;;;35.63;100.00
6028;BME280;3042;43.194;27.646;2023-06-26T11:44:30;100894.75;;;35.65;100.00
6028;BME280;3042;43.194;27.646;2023-06-26T11:46:57;100897.00;;;35.57;100.00
6028;BME280;3042;43.194;27.646;2023-06-26T11:49:24;100898.47;;;35.46;100.00
6028;BME280;3042;43.194;27.646;2023-06-26T11:51:53;100928.25;;;34.94;100.00
6028;BME280;3042;43.194;27.646;2023-06-26T11:54:24;100869.22;;;34.61;100.00
6028;BME280;3042;43.194;27.646;2023-06-26T11:56:54;100841.53;;;35.08;100.00
6028;BME280;3042;43.194;27.646;2023-06-26T11:59:23;100894.47;;;35.54;100.00
6028;BME280;3042;43.194;27.646;2023-06-26T12:01:51;100885.38;;;35.72;100.00
6028;BME280;3042;43.194;27.646;2023-06-26T12:04:19;100895.78;;;35.46;100.00
6028;BME280;3042;43.194;27.646;2023-06-26T12:06:47;100896.38;;;35.51;100.00
6028;BME280;3042;43.194;27.646;2023-06-26T12:09:17;100902.66;;;35.36;100.00
6028;BME280;3042;43.194;27.646;2023-06-26T12:11:47;100909.59;;;35.24;100.00
6028;BME280;3042;43.194;27.646;2023-06-26T12:14:16;100902.06;;;35.31;100.00
6028;BME280;3042;43.194;27.646;2023-06-26T12:16:44;100912.19;;;35.26;100.00
6028;BME280;3042;43.194;27.646;2023-06-26T12:19:12;100899.63;;;35.11;100.00
6028;BME280;3042;43.194;27.646;2023-06-26T12:21:47;100915.56;;;35.14;100.00
6028;BME280;3042;43.194;27.646;2023-06-26T12:24:19;100932.59;;;34.63;100.00
6028;BME280;3042;43.194;27.646;2023-06-26T12:26:49;100919.13;;;34.81;100.00
6028;BME280;3042;43.194;27.646;2023-06-26T12:29:19;100909.69;;;34.56;100.00
6028;BME280;3042;43.194;27.646;2023-06-26T12:31:49;100935.91;;;34.68;100.00
6028;BME280;3042;43.194;27.646;2023-06-26T12:34:18;100940.16;;;34.55;100.00
6028;BME280;3042;43.194;27.646;2023-06-26T12:36:47;100935.13;;;34.66;100.00
6028;BME280;3042;43.194;27.646;2023-06-26T12:39:15;100832.78;;;34.55;100.00
6028;BME280;3042;43.194;27.646;2023-06-26T12:41:46;100886.91;;;34.81;100.00
6028;BME280;3042;43.194;27.646;2023-06-26T12:44:19;100921.25;;;35.07;98.47
6028;BME280;3042;43.194;27.646;2023-06-26T12:46:47;100929.38;;;34.90;97.75
6028;BME280;3042;43.194;27.646;2023-06-26T12:49:16;100921.78;;;34.98;95.70
6028;BME280;3042;43.194;27.646;2023-06-26T12:51:43;100943.72;;;34.73;98.76
6028;BME280;3042;43.194;27.646;2023-06-26T12:54:11;100913.56;;;34.68;98.82
6028;BME280;3042;43.194;27.646;2023-06-26T12:56:38;100837.97;;;34.42;100.00